sensor_id;sensor_type;location;lat;lon;timestamp;pressure;altitude;pressure_sealevel;temperature
54026;BMP280;74404;50.662;3.398;2024-03-17T00:00:44;101498.34;;;10.41
54026;BMP280;74404;50.662;3.398;2024-03-17T00:03:10;101497.31;;;10.42
54026;BMP280;74404;50.662;3.398;2024-03-17T00:05:36;101487.50;;;10.37
54026;BMP280;74404;50.662;3.398;2024-03-17T00:08:02;101491.47;;;10.40
54026;BMP280;74404;50.662;3.398;2024-03-17T00:10:31;101494.91;;;10.40
54026;BMP280;74404;50.662;3.398;2024-03-17T00:12:56;101484.84;;;10.37
54026;BMP280;74404;50.662;3.398;2024-03-17T00:15:23;101482.97;;;10.38
54026;BMP280;74404;50.662;3.398;2024-03-17T00:17:48;101485.88;;;10.36
54026;BMP280;74404;50.662;3.398;2024-03-17T00:20:13;101482.44;;;10.36
54026;BMP280;74404;50.662;3.398;2024-03-17T00:22:48;101488.81;;;10.35
54026;BMP280;74404;50.662;3.398;2024-03-17T00:25:14;101486.44;;;10.33
54026;BMP280;74404;50.662;3.398;2024-03-17T00:27:40;101482.97;;;10.33
54026;BMP280;74404;50.662;3.398;2024-03-17T00:30:09;101484.03;;;10.32
54026;BMP280;74404;50.662;3.398;2024-03-17T00:32:38;101480.56;;;10.31
54026;BMP280;74404;50.662;3.398;2024-03-17T00:35:06;101485.09;;;10.31
54026;BMP280;74404;50.662;3.398;2024-03-17T00:37:32;101475.81;;;10.28
54026;BMP280;74404;50.662;3.398;2024-03-17T00:39:59;101479.28;;;10.29
54026;BMP280;74404;50.662;3.398;2024-03-17T00:42:25;101475.03;;;10.28
54026;BMP280;74404;50.662;3.398;2024-03-17T00:44:51;101466.53;;;10.26
54026;BMP280;74404;50.662;3.398;2024-03-17T00:47:16;101476.34;;;10.25
54026;BMP280;74404;50.662;3.398;2024-03-17T00:49:42;101474.47;;;10.26
54026;BMP280;74404;50.662;3.398;2024-03-17T00:52:07;101475.53;;;10.25
54026;BMP280;74404;50.662;3.398;2024-03-17T00:54:33;101467.03;;;10.23
54026;BMP280;74404;50.662;3.398;2024-03-17T00:56:58;101463.88;;;10.20
54026;BMP280;74404;50.662;3.398;2024-03-17T00:59:24;101472.91;;;10.19
54026;BMP280;74404;50.662;3.398;2024-03-17T01:01:49;101470.50;;;10.18
54026;BMP280;74404;50.662;3.398;2024-03-17T01:04:15;101465.97;;;10.13
54026;BMP280;74404;50.662;3.398;2024-03-17T01:06:40;101450.03;;;10.13
54026;BMP280;74404;50.662;3.398;2024-03-17T01:09:06;101459.34;;;10.16
54026;BMP280;74404;50.662;3.398;2024-03-17T01:11:34;101456.69;;;10.16
54026;BMP280;74404;50.662;3.398;2024-03-17T01:13:59;101450.34;;;10.17
54026;BMP280;74404;50.662;3.398;2024-03-17T01:16:25;101445.06;;;10.12
54026;BMP280;74404;50.662;3.398;2024-03-17T01:18:50;101450.03;;;10.13
54026;BMP280;74404;50.662;3.398;2024-03-17T01:21:15;101452.69;;;10.13
54026;BMP280;74404;50.662;3.398;2024-03-17T01:23:41;101440.00;;;10.10
54026;BMP280;74404;50.662;3.398;2024-03-17T01:26:06;101448.50;;;10.12
54026;BMP280;74404;50.662;3.398;2024-03-17T01:28:32;101440.00;;;10.10
54026;BMP280;74404;50.662;3.398;2024-03-17T01:30:57;101438.94;;;10.11
54026;BMP280;74404;50.662;3.398;2024-03-17T01:33:23;101426.19;;;10.08
54026;BMP280;74404;50.662;3.398;2024-03-17T01:35:48;101425.94;;;10.10
54026;BMP280;74404;50.662;3.398;2024-03-17T01:38:13;101419.06;;;10.09
54026;BMP280;74404;50.662;3.398;2024-03-17T01:40:39;101428.06;;;10.08
54026;BMP280;74404;50.662;3.398;2024-03-17T01:43:05;101415.06;;;10.01
54026;BMP280;74404;50.662;3.398;2024-03-17T01:45:35;101416.09;;;10.05
54026;BMP280;74404;50.662;3.398;2024-03-17T01:48:02;101415.06;;;10.06
54026;BMP280;74404;50.662;3.398;2024-03-17T01:50:37;101410.00;;;10.05
54026;BMP280;74404;50.662;3.398;2024-03-17T01:53:03;101408.47;;;10.04
54026;BMP280;74404;50.662;3.398;2024-03-17T01:55:34;101407.34;;;10.05
54026;BMP280;74404;50.662;3.398;2024-03-17T01:58:03;101390.66;;;9.99
54026;BMP280;74404;50.662;3.398;2024-03-17T02:00:29;101391.44;;;9.99
54026;BMP280;74404;50.662;3.398;2024-03-17T02:02:57;101400.50;;;10.04
54026;BMP280;74404;50.662;3.398;2024-03-17T02:05:22;101398.09;;;10.02
54026;BMP280;74404;50.662;3.398;2024-03-17T02:07:48;101391.72;;;10.03
54026;BMP280;74404;50.662;3.398;2024-03-17T02:10:13;101386.41;;;9.98
54026;BMP280;74404;50.662;3.398;2024-03-17T02:12:39;101378.19;;;9.99
54026;BMP280;74404;50.662;3.398;2024-03-17T02:15:06;101395.72;;;10.00
54026;BMP280;74404;50.662;3.398;2024-03-17T02:17:33;101388.00;;;9.99
54026;BMP280;74404;50.662;3.398;2024-03-17T02:19:58;101382.97;;;9.97
54026;BMP280;74404;50.662;3.398;2024-03-17T02:22:25;101383.50;;;9.99
54026;BMP280;74404;50.662;3.398;2024-03-17T02:24:50;101375.28;;;9.96
54026;BMP280;74404;50.662;3.398;2024-03-17T02:27:16;101377.66;;;9.97
54026;BMP280;74404;50.662;3.398;2024-03-17T02:29:41;101367.31;;;9.96
54026;BMP280;74404;50.662;3.398;2024-03-17T02:32:07;101370.25;;;9.94
54026;BMP280;74404;50.662;3.398;2024-03-17T02:34:36;101372.63;;;9.96
54026;BMP280;74404;50.662;3.398;2024-03-17T02:37:03;101368.38;;;9.95
54026;BMP280;74404;50.662;3.398;2024-03-17T02:39:30;101364.66;;;9.96
54026;BMP280;74404;50.662;3.398;2024-03-17T02:42:06;101355.13;;;9.95
54026;BMP280;74404;50.662;3.398;2024-03-17T02:44:33;101364.66;;;9.96
54026;BMP280;74404;50.662;3.398;2024-03-17T02:46:59;101356.19;;;9.94
54026;BMP280;74404;50.662;3.398;2024-03-17T02:49:26;101351.69;;;9.94
54026;BMP280;74404;50.662;3.398;2024-03-17T02:52:10;101347.19;;;9.95
54026;BMP280;74404;50.662;3.398;2024-03-17T02:54:38;101344.00;;;9.93
54026;BMP280;74404;50.662;3.398;2024-03-17T02:57:05;101344.00;;;9.93
54026;BMP280;74404;50.662;3.398;2024-03-17T02:59:32;101344.25;;;9.91
54026;BMP280;74404;50.662;3.398;2024-03-17T03:01:58;101339.22;;;9.90
54026;BMP280;74404;50.662;3.398;2024-03-17T03:04:24;101335.50;;;9.91
54026;BMP280;74404;50.662;3.398;2024-03-17T03:06:50;101330.72;;;9.88
54026;BMP280;74404;50.662;3.398;2024-03-17T03:09:15;101321.44;;;9.90
54026;BMP280;74404;50.662;3.398;2024-03-17T03:11:47;101317.22;;;9.89
54026;BMP280;74404;50.662;3.398;2024-03-17T03:14:12;101309.28;;;9.84
54026;BMP280;74404;50.662;3.398;2024-03-17T03:16:38;101314.03;;;9.87
54026;BMP280;74404;50.662;3.398;2024-03-17T03:19:04;101301.56;;;9.88
54026;BMP280;74404;50.662;3.398;2024-03-17T03:21:31;101300.50;;;9.78
54026;BMP280;74404;50.662;3.398;2024-03-17T03:23:56;101309.81;;;9.86
54026;BMP280;74404;50.662;3.398;2024-03-17T03:26:22;101308.44;;;9.84
54026;BMP280;74404;50.662;3.398;2024-03-17T03:28:48;101314.03;;;9.87
54026;BMP280;74404;50.662;3.398;2024-03-17T03:31:14;101311.66;;;9.86
54026;BMP280;74404;50.662;3.398;2024-03-17T03:33:41;101309.78;;;9.81
54026;BMP280;74404;50.662;3.398;2024-03-17T03:36:11;101312.97;;;9.83
54026;BMP280;74404;50.662;3.398;2024-03-17T03:38:37;101306.06;;;9.82
54026;BMP280;74404;50.662;3.398;2024-03-17T03:41:10;101304.22;;;9.83
54026;BMP280;74404;50.662;3.398;2024-03-17T03:43:37;101307.13;;;9.81
54026;BMP280;74404;50.662;3.398;2024-03-17T03:46:03;101307.13;;;9.81
54026;BMP280;74404;50.662;3.398;2024-03-17T03:48:29;101299.44;;;9.79
54026;BMP280;74404;50.662;3.398;2024-03-17T03:50:54;101299.22;;;9.76
54026;BMP280;74404;50.662;3.398;2024-03-17T03:53:20;101290.69;;;9.79
54026;BMP280;74404;50.662;3.398;2024-03-17T03:55:46;101284.88;;;9.77
54026;BMP280;74404;50.662;3.398;2024-03-17T03:58:11;101277.72;;;9.77
54026;BMP280;74404;50.662;3.398;2024-03-17T04:00:38;101280.88;;;9.79
54026;BMP280;74404;50.662;3.398;2024-03-17T04:03:05;101281.16;;;9.78
54026;BMP280;74404;50.662;3.398;2024-03-17T04:05:30;101277.44;;;9.74
54026;BMP280;74404;50.662;3.398;2024-03-17T04:07:57;101280.66;;;9.76
54026;BMP280;74404;50.662;3.398;2024-03-17T04:10:24;101285.13;;;9.75
54026;BMP280;74404;50.662;3.398;2024-03-17T04:12:51;101280.91;;;9.74
54026;BMP280;74404;50.662;3.398;2024-03-17T04:15:16;101277.72;;;9.72
54026;BMP280;74404;50.662;3.398;2024-03-17T04:17:42;101278.50;;;9.73
54026;BMP280;74404;50.662;3.398;2024-03-17T04:20:08;101283.03;;;9.72
54026;BMP280;74404;50.662;3.398;2024-03-17T04:22:35;101281.16;;;9.73
54026;BMP280;74404;50.662;3.398;2024-03-17T04:25:02;101289.13;;;9.73
54026;BMP280;74404;50.662;3.398;2024-03-17T04:27:29;101286.72;;;9.71
54026;BMP280;74404;50.662;3.398;2024-03-17T04:29:58;101281.44;;;9.71
54026;BMP280;74404;50.662;3.398;2024-03-17T04:32:24;101276.38;;;9.70
54026;BMP280;74404;50.662;3.398;2024-03-17T04:34:52;101274.03;;;9.68
54026;BMP280;74404;50.662;3.398;2024-03-17T04:37:18;101274.78;;;9.69
54026;BMP280;74404;50.662;3.398;2024-03-17T04:39:44;101271.38;;;9.68
54026;BMP280;74404;50.662;3.398;2024-03-17T04:42:12;101272.69;;;9.66
54026;BMP280;74404;50.662;3.398;2024-03-17T04:44:39;101269.78;;;9.67
54026;BMP280;74404;50.662;3.398;2024-03-17T04:47:05;101270.84;;;9.66
54026;BMP280;74404;50.662;3.398;2024-03-17T04:49:39;101264.47;;;9.67
54026;BMP280;74404;50.662;3.398;2024-03-17T04:52:05;101269.25;;;9.65
54026;BMP280;74404;50.662;3.398;2024-03-17T04:54:32;101265.00;;;9.64
54026;BMP280;74404;50.662;3.398;2024-03-17T04:56:58;101266.59;;;9.65
54026;BMP280;74404;50.662;3.398;2024-03-17T04:59:24;101257.84;;;9.65
54026;BMP280;74404;50.662;3.398;2024-03-17T05:01:49;101250.69;;;9.65
54026;BMP280;74404;50.662;3.398;2024-03-17T05:04:15;101252.53;;;9.65
54026;BMP280;74404;50.662;3.398;2024-03-17T05:06:41;101258.38;;;9.67
54026;BMP280;74404;50.662;3.398;2024-03-17T05:09:13;101261.03;;;9.67
54026;BMP280;74404;50.662;3.398;2024-03-17T05:11:39;101262.06;;;9.66
54026;BMP280;74404;50.662;3.398;2024-03-17T05:14:04;101249.38;;;9.63
54026;BMP280;74404;50.662;3.398;2024-03-17T05:16:30;101250.94;;;9.64
54026;BMP280;74404;50.662;3.398;2024-03-17T05:18:56;101250.94;;;9.64
54026;BMP280;74404;50.662;3.398;2024-03-17T05:21:21;101254.66;;;9.63
54026;BMP280;74404;50.662;3.398;2024-03-17T05:23:47;101255.47;;;9.63
54026;BMP280;74404;50.662;3.398;2024-03-17T05:26:14;101258.63;;;9.65
54026;BMP280;74404;50.662;3.398;2024-03-17T05:28:39;101258.91;;;9.64
54026;BMP280;74404;50.662;3.398;2024-03-17T05:31:05;101254.94;;;9.61
54026;BMP280;74404;50.662;3.398;2024-03-17T05:33:30;101252.81;;;9.63
54026;BMP280;74404;50.662;3.398;2024-03-17T05:36:00;101258.91;;;9.64
54026;BMP280;74404;50.662;3.398;2024-03-17T05:38:28;101260.75;;;9.63
54026;BMP280;74404;50.662;3.398;2024-03-17T05:40:58;101258.09;;;9.63
54026;BMP280;74404;50.662;3.398;2024-03-17T05:43:25;101257.31;;;9.63
54026;BMP280;74404;50.662;3.398;2024-03-17T05:45:57;101265.28;;;9.63
54026;BMP280;74404;50.662;3.398;2024-03-17T05:48:22;101260.50;;;9.65
54026;BMP280;74404;50.662;3.398;2024-03-17T05:50:49;101260.50;;;9.65
54026;BMP280;74404;50.662;3.398;2024-03-17T05:53:17;101258.09;;;9.63
54026;BMP280;74404;50.662;3.398;2024-03-17T05:55:43;101250.94;;;9.64
54026;BMP280;74404;50.662;3.398;2024-03-17T05:58:09;101248.28;;;9.64
54026;BMP280;74404;50.662;3.398;2024-03-17T06:00:35;101245.91;;;9.62
54026;BMP280;74404;50.662;3.398;2024-03-17T06:03:01;101246.72;;;9.63
54026;BMP280;74404;50.662;3.398;2024-03-17T06:05:27;101254.66;;;9.63
54026;BMP280;74404;50.662;3.398;2024-03-17T06:07:53;101257.31;;;9.63
54026;BMP280;74404;50.662;3.398;2024-03-17T06:10:19;101256.50;;;9.62
54026;BMP280;74404;50.662;3.398;2024-03-17T06:12:49;101262.63;;;9.63
54026;BMP280;74404;50.662;3.398;2024-03-17T06:15:15;101258.09;;;9.63
54026;BMP280;74404;50.662;3.398;2024-03-17T06:17:41;101258.91;;;9.64
54026;BMP280;74404;50.662;3.398;2024-03-17T06:20:07;101270.31;;;9.64
54026;BMP280;74404;50.662;3.398;2024-03-17T06:22:36;101261.56;;;9.64
54026;BMP280;74404;50.662;3.398;2024-03-17T06:25:01;101266.06;;;9.63
54026;BMP280;74404;50.662;3.398;2024-03-17T06:27:27;101256.50;;;9.62
54026;BMP280;74404;50.662;3.398;2024-03-17T06:29:54;101243.81;;;9.59
54026;BMP280;74404;50.662;3.398;2024-03-17T06:32:20;101267.09;;;9.62
54026;BMP280;74404;50.662;3.398;2024-03-17T06:34:46;101263.41;;;9.63
54026;BMP280;74404;50.662;3.398;2024-03-17T06:37:11;101268.72;;;9.63
54026;BMP280;74404;50.662;3.398;2024-03-17T06:39:37;101266.06;;;9.63
54026;BMP280;74404;50.662;3.398;2024-03-17T06:42:03;101268.72;;;9.63
54026;BMP280;74404;50.662;3.398;2024-03-17T06:44:28;101261.56;;;9.64
54026;BMP280;74404;50.662;3.398;2024-03-17T06:46:55;101260.50;;;9.65
54026;BMP280;74404;50.662;3.398;2024-03-17T06:49:21;101262.38;;;9.64
54026;BMP280;74404;50.662;3.398;2024-03-17T06:51:46;101266.84;;;9.64
54026;BMP280;74404;50.662;3.398;2024-03-17T06:54:13;101264.19;;;9.64
54026;BMP280;74404;50.662;3.398;2024-03-17T06:56:39;101254.41;;;9.64
54026;BMP280;74404;50.662;3.398;2024-03-17T06:59:05;101264.19;;;9.64
54026;BMP280;74404;50.662;3.398;2024-03-17T07:01:31;101260.50;;;9.65
54026;BMP280;74404;50.662;3.398;2024-03-17T07:03:56;101269.25;;;9.65
54026;BMP280;74404;50.662;3.398;2024-03-17T07:06:21;101270.31;;;9.64
54026;BMP280;74404;50.662;3.398;2024-03-17T07:08:47;101285.94;;;9.66
54026;BMP280;74404;50.662;3.398;2024-03-17T07:11:12;101276.41;;;9.65
54026;BMP280;74404;50.662;3.398;2024-03-17T07:13:38;101291.53;;;9.64
54026;BMP280;74404;50.662;3.398;2024-03-17T07:16:07;101291.22;;;9.66
54026;BMP280;74404;50.662;3.398;2024-03-17T07:18:33;101292.06;;;9.66
54026;BMP280;74404;50.662;3.398;2024-03-17T07:21:00;101293.09;;;9.65
54026;BMP280;74404;50.662;3.398;2024-03-17T07:23:26;101300.00;;;9.66
54026;BMP280;74404;50.662;3.398;2024-03-17T07:25:53;101296.53;;;9.66
54026;BMP280;74404;50.662;3.398;2024-03-17T07:28:19;101287.78;;;9.65
54026;BMP280;74404;50.662;3.398;2024-03-17T07:30:55;101290.19;;;9.67
54026;BMP280;74404;50.662;3.398;2024-03-17T07:33:21;101296.28;;;9.67
54026;BMP280;74404;50.662;3.398;2024-03-17T07:35:51;101295.50;;;9.67
54026;BMP280;74404;50.662;3.398;2024-03-17T07:38:17;101295.22;;;9.68
54026;BMP280;74404;50.662;3.398;2024-03-17T07:40:44;101296.53;;;9.66
54026;BMP280;74404;50.662;3.398;2024-03-17T07:43:10;101292.06;;;9.66
54026;BMP280;74404;50.662;3.398;2024-03-17T07:45:35;101299.47;;;9.69
54026;BMP280;74404;50.662;3.398;2024-03-17T07:48:01;101289.41;;;9.66
54026;BMP280;74404;50.662;3.398;2024-03-17T07:50:26;101299.47;;;9.69
54026;BMP280;74404;50.662;3.398;2024-03-17T07:52:52;101293.06;;;9.70
54026;BMP280;74404;50.662;3.398;2024-03-17T07:55:17;101299.19;;;9.71
54026;BMP280;74404;50.662;3.398;2024-03-17T07:57:43;101293.34;;;9.69
54026;BMP280;74404;50.662;3.398;2024-03-17T08:00:09;101290.44;;;9.70
54026;BMP280;74404;50.662;3.398;2024-03-17T08:02:49;101298.38;;;9.70
54026;BMP280;74404;50.662;3.398;2024-03-17T08:05:15;101292.81;;;9.72
54026;BMP280;74404;50.662;3.398;2024-03-17T08:07:40;101287.78;;;9.70
54026;BMP280;74404;50.662;3.398;2024-03-17T08:10:07;101285.94;;;9.71
54026;BMP280;74404;50.662;3.398;2024-03-17T08:12:33;101284.09;;;9.71
54026;BMP280;74404;50.662;3.398;2024-03-17T08:14:59;101282.22;;;9.72
54026;BMP280;74404;50.662;3.398;2024-03-17T08:17:25;101275.34;;;9.71
54026;BMP280;74404;50.662;3.398;2024-03-17T08:19:50;101274.25;;;9.72
54026;BMP280;74404;50.662;3.398;2024-03-17T08:22:17;101279.31;;;9.73
54026;BMP280;74404;50.662;3.398;2024-03-17T08:24:42;101277.44;;;9.74
54026;BMP280;74404;50.662;3.398;2024-03-17T08:27:08;101267.66;;;9.69
54026;BMP280;74404;50.662;3.398;2024-03-17T08:29:34;101274.78;;;9.74
54026;BMP280;74404;50.662;3.398;2024-03-17T08:32:00;101270.81;;;9.71
54026;BMP280;74404;50.662;3.398;2024-03-17T08:34:25;101269.47;;;9.69
54026;BMP280;74404;50.662;3.398;2024-03-17T08:36:50;101275.34;;;9.76
54026;BMP280;74404;50.662;3.398;2024-03-17T08:39:16;101272.69;;;9.76
54026;BMP280;74404;50.662;3.398;2024-03-17T08:41:41;101273.47;;;9.76
54026;BMP280;74404;50.662;3.398;2024-03-17T08:44:09;101271.63;;;9.77
54026;BMP280;74404;50.662;3.398;2024-03-17T08:46:35;101268.97;;;9.77
54026;BMP280;74404;50.662;3.398;2024-03-17T08:49:00;101270.53;;;9.78
54026;BMP280;74404;50.662;3.398;2024-03-17T08:51:26;101268.19;;;9.76
54026;BMP280;74404;50.662;3.398;2024-03-17T08:53:52;101272.16;;;9.79
54026;BMP280;74404;50.662;3.398;2024-03-17T08:56:18;101264.44;;;9.77
54026;BMP280;74404;50.662;3.398;2024-03-17T08:58:45;101260.72;;;9.78
54026;BMP280;74404;50.662;3.398;2024-03-17T09:01:13;101264.97;;;9.79
54026;BMP280;74404;50.662;3.398;2024-03-17T09:03:39;101264.19;;;9.79
54026;BMP280;74404;50.662;3.398;2024-03-17T09:06:14;101254.13;;;9.76
54026;BMP280;74404;50.662;3.398;2024-03-17T09:08:40;101253.59;;;9.79
54026;BMP280;74404;50.662;3.398;2024-03-17T09:11:11;101255.97;;;9.80
54026;BMP280;74404;50.662;3.398;2024-03-17T09:13:37;101256.50;;;9.83
54026;BMP280;74404;50.662;3.398;2024-03-17T09:16:03;101249.59;;;9.81
54026;BMP280;74404;50.662;3.398;2024-03-17T09:18:30;101249.59;;;9.81
54026;BMP280;74404;50.662;3.398;2024-03-17T09:21:00;101247.72;;;9.82
54026;BMP280;74404;50.662;3.398;2024-03-17T09:23:26;101247.47;;;9.84
54026;BMP280;74404;50.662;3.398;2024-03-17T09:25:57;101236.06;;;9.83
54026;BMP280;74404;50.662;3.398;2024-03-17T09:28:22;101240.31;;;9.84
54026;BMP280;74404;50.662;3.398;2024-03-17T09:30:48;101244.56;;;9.85
54026;BMP280;74404;50.662;3.398;2024-03-17T09:33:14;101247.72;;;9.87
54026;BMP280;74404;50.662;3.398;2024-03-17T09:35:40;101236.59;;;9.85
54026;BMP280;74404;50.662;3.398;2024-03-17T09:38:06;101243.22;;;9.88
54026;BMP280;74404;50.662;3.398;2024-03-17T09:40:32;101240.28;;;9.89
54026;BMP280;74404;50.662;3.398;2024-03-17T09:42:57;101249.03;;;9.90
54026;BMP280;74404;50.662;3.398;2024-03-17T09:45:24;101246.66;;;9.88
54026;BMP280;74404;50.662;3.398;2024-03-17T09:47:51;101245.34;;;9.91
54026;BMP280;74404;50.662;3.398;2024-03-17T09:50:16;101238.97;;;9.92
54026;BMP280;74404;50.662;3.398;2024-03-17T09:52:45;101241.59;;;9.92
54026;BMP280;74404;50.662;3.398;2024-03-17T09:55:16;101243.22;;;9.93
54026;BMP280;74404;50.662;3.398;2024-03-17T09:57:42;101243.22;;;9.93
54026;BMP280;74404;50.662;3.398;2024-03-17T10:00:13;101239.50;;;9.94
54026;BMP280;74404;50.662;3.398;2024-03-17T10:02:46;101247.22;;;9.95
54026;BMP280;74404;50.662;3.398;2024-03-17T10:05:23;101240.00;;;9.96
54026;BMP280;74404;50.662;3.398;2024-03-17T10:07:50;101230.97;;;9.97
54026;BMP280;74404;50.662;3.398;2024-03-17T10:10:17;101229.66;;;9.99
54026;BMP280;74404;50.662;3.398;2024-03-17T10:12:43;101227.00;;;9.99
54026;BMP280;74404;50.662;3.398;2024-03-17T10:15:12;101224.88;;;10.01
54026;BMP280;74404;50.662;3.398;2024-03-17T10:17:38;101222.22;;;10.01
54026;BMP280;74404;50.662;3.398;2024-03-17T10:20:18;101218.22;;;10.04
54026;BMP280;74404;50.662;3.398;2024-03-17T10:23:05;101211.56;;;10.07
54026;BMP280;74404;50.662;3.398;2024-03-17T10:25:32;101204.44;;;10.07
54026;BMP280;74404;50.662;3.398;2024-03-17T10:27:59;101198.06;;;10.08
54026;BMP280;74404;50.662;3.398;2024-03-17T10:30:25;101203.91;;;10.10
54026;BMP280;74404;50.662;3.398;2024-03-17T10:32:59;101210.78;;;10.11
54026;BMP280;74404;50.662;3.398;2024-03-17T10:35:33;101207.56;;;10.14
54026;BMP280;74404;50.662;3.398;2024-03-17T10:38:03;101204.66;;;10.16
54026;BMP280;74404;50.662;3.398;2024-03-17T10:40:32;101198.81;;;10.19
54026;BMP280;74404;50.662;3.398;2024-03-17T10:43:01;101207.00;;;10.23
54026;BMP280;74404;50.662;3.398;2024-03-17T10:45:29;101200.13;;;10.21
54026;BMP280;74404;50.662;3.398;2024-03-17T10:48:02;101196.13;;;10.24
54026;BMP280;74404;50.662;3.398;2024-03-17T10:50:32;101187.38;;;10.24
54026;BMP280;74404;50.662;3.398;2024-03-17T10:53:04;101188.41;;;10.28
54026;BMP280;74404;50.662;3.398;2024-03-17T10:55:44;101184.44;;;10.30
54026;BMP280;74404;50.662;3.398;2024-03-17T10:58:38;101184.94;;;10.32
54026;BMP280;74404;50.662;3.398;2024-03-17T11:01:06;101190.50;;;10.36
54026;BMP280;74404;50.662;3.398;2024-03-17T11:03:33;101188.88;;;10.40
54026;BMP280;74404;50.662;3.398;2024-03-17T11:06:02;101181.44;;;10.42
54026;BMP280;74404;50.662;3.398;2024-03-17T11:08:30;101180.09;;;10.45
54026;BMP280;74404;50.662;3.398;2024-03-17T11:10:57;101180.34;;;10.48
54026;BMP280;74404;50.662;3.398;2024-03-17T11:13:24;101184.81;;;10.53
54026;BMP280;74404;50.662;3.398;2024-03-17T11:15:51;101175.75;;;10.59
54026;BMP280;74404;50.662;3.398;2024-03-17T11:21:19;101176.28;;;10.61
54026;BMP280;74404;50.662;3.398;2024-03-17T11:23:56;101173.59;;;10.66
54026;BMP280;74404;50.662;3.398;2024-03-17T11:26:31;101168.56;;;10.65
54026;BMP280;74404;50.662;3.398;2024-03-17T11:28:57;101167.97;;;10.68
54026;BMP280;74404;50.662;3.398;2024-03-17T11:31:33;101168.75;;;10.73
54026;BMP280;74404;50.662;3.398;2024-03-17T11:34:04;101164.22;;;10.74
54026;BMP280;74404;50.662;3.398;2024-03-17T11:36:37;101163.69;;;10.77
54026;BMP280;74404;50.662;3.398;2024-03-17T11:39:08;101159.69;;;10.79
54026;BMP280;74404;50.662;3.398;2024-03-17T11:41:46;101160.97;;;10.82
54026;BMP280;74404;50.662;3.398;2024-03-17T11:44:32;101142.91;;;10.84
54026;BMP280;74404;50.662;3.398;2024-03-17T11:47:03;101150.06;;;10.84
54026;BMP280;74404;50.662;3.398;2024-03-17T11:51:56;101138.06;;;10.91
54026;BMP280;74404;50.662;3.398;2024-03-17T11:54:29;101131.41;;;10.94
54026;BMP280;74404;50.662;3.398;2024-03-17T11:57:08;101139.09;;;10.95
54026;BMP280;74404;50.662;3.398;2024-03-17T11:59:35;101128.47;;;10.95
54026;BMP280;74404;50.662;3.398;2024-03-17T12:02:02;101140.13;;;10.99
54026;BMP280;74404;50.662;3.398;2024-03-17T12:04:28;101134.25;;;11.02
54026;BMP280;74404;50.662;3.398;2024-03-17T12:06:58;101129.16;;;11.06
54026;BMP280;74404;50.662;3.398;2024-03-17T12:09:25;101126.22;;;11.08
54026;BMP280;74404;50.662;3.398;2024-03-17T12:12:00;101121.94;;;11.12
54026;BMP280;74404;50.662;3.398;2024-03-17T12:14:26;101121.94;;;11.12
54026;BMP280;74404;50.662;3.398;2024-03-17T12:16:56;101111.81;;;11.14
54026;BMP280;74404;50.662;3.398;2024-03-17T12:19:23;101114.19;;;11.15
54026;BMP280;74404;50.662;3.398;2024-03-17T12:21:51;101112.34;;;11.16
54026;BMP280;74404;50.662;3.398;2024-03-17T12:24:18;101108.31;;;11.18
54026;BMP280;74404;50.662;3.398;2024-03-17T12:26:45;101106.94;;;11.21
54026;BMP280;74404;50.662;3.398;2024-03-17T12:32:13;101097.63;;;11.23
54026;BMP280;74404;50.662;3.398;2024-03-17T12:34:42;101094.41;;;11.27
54026;BMP280;74404;50.662;3.398;2024-03-17T12:37:09;101099.44;;;11.28
54026;BMP280;74404;50.662;3.398;2024-03-17T12:39:41;101093.81;;;11.30
54026;BMP280;74404;50.662;3.398;2024-03-17T12:42:08;101095.44;;;11.31
54026;BMP280;74404;50.662;3.398;2024-03-17T12:44:38;101091.41;;;11.33
54026;BMP280;74404;50.662;3.398;2024-03-17T12:47:14;101080.50;;;11.35
54026;BMP280;74404;50.662;3.398;2024-03-17T12:49:47;101082.56;;;11.38
54026;BMP280;74404;50.662;3.398;2024-03-17T12:52:21;101082.56;;;11.38
54026;BMP280;74404;50.662;3.398;2024-03-17T12:57:46;101066.84;;;11.41
54026;BMP280;74404;50.662;3.398;2024-03-17T13:00:30;101071.09;;;11.42
54026;BMP280;74404;50.662;3.398;2024-03-17T13:02:57;101068.44;;;11.42
54026;BMP280;74404;50.662;3.398;2024-03-17T13:05:22;101067.09;;;11.45
54026;BMP280;74404;50.662;3.398;2024-03-17T13:07:48;101054.56;;;11.46
54026;BMP280;74404;50.662;3.398;2024-03-17T13:10:19;101056.13;;;11.47
54026;BMP280;74404;50.662;3.398;2024-03-17T13:12:45;101060.94;;;11.45
54026;BMP280;74404;50.662;3.398;2024-03-17T13:15:16;101057.75;;;11.48
54026;BMP280;74404;50.662;3.398;2024-03-17T13:17:44;101053.19;;;11.48
54026;BMP280;74404;50.662;3.398;2024-03-17T13:20:14;101046.81;;;11.49
54026;BMP280;74404;50.662;3.398;2024-03-17T13:22:44;101048.41;;;11.50
54026;BMP280;74404;50.662;3.398;2024-03-17T13:25:18;101041.22;;;11.51
54026;BMP280;74404;50.662;3.398;2024-03-17T13:27:46;101040.66;;;11.54
54026;BMP280;74404;50.662;3.398;2024-03-17T13:30:12;101034.50;;;11.53
54026;BMP280;74404;50.662;3.398;2024-03-17T13:32:39;101029.19;;;11.53
54026;BMP280;74404;50.662;3.398;2024-03-17T13:35:06;101031.28;;;11.56
54026;BMP280;74404;50.662;3.398;2024-03-17T13:37:34;101031.03;;;11.58
54026;BMP280;74404;50.662;3.398;2024-03-17T13:40:00;101020.88;;;11.60
54026;BMP280;74404;50.662;3.398;2024-03-17T13:42:28;101026.72;;;11.62
54026;BMP280;74404;50.662;3.398;2024-03-17T13:44:54;101026.44;;;11.63
54026;BMP280;74404;50.662;3.398;2024-03-17T13:47:19;101016.84;;;11.62
54026;BMP280;74404;50.662;3.398;2024-03-17T13:49:44;101019.75;;;11.66
54026;BMP280;74404;50.662;3.398;2024-03-17T13:52:10;101009.91;;;11.67
54026;BMP280;74404;50.662;3.398;2024-03-17T13:54:36;101010.97;;;11.66
54026;BMP280;74404;50.662;3.398;2024-03-17T13:57:01;101011.75;;;11.66
54026;BMP280;74404;50.662;3.398;2024-03-17T13:59:27;101007.53;;;11.65
54026;BMP280;74404;50.662;3.398;2024-03-17T14:01:53;101006.94;;;11.68
54026;BMP280;74404;50.662;3.398;2024-03-17T14:04:18;101004.28;;;11.68
54026;BMP280;74404;50.662;3.398;2024-03-17T14:06:45;101003.19;;;11.69
54026;BMP280;74404;50.662;3.398;2024-03-17T14:09:12;101013.75;;;11.74
54026;BMP280;74404;50.662;3.398;2024-03-17T14:11:38;101002.03;;;11.75
54026;BMP280;74404;50.662;3.398;2024-03-17T14:14:06;101010.81;;;11.76
54026;BMP280;74404;50.662;3.398;2024-03-17T14:16:33;100995.66;;;11.76